Time;durP1;ratioP1;P1;durP2;ratioP2;P2;SDS_P1;SDS_P2;PMS_P1;PMS_P2;Temp;Humidity;BMP_temperature;BMP_pressure;BME280_temperature;BME280_humidity;BME280_pressure;Samples;Min_cycle;Max_cycle;Signal;HPM_P1;HPM_P2
2023/11/27 19:28:35;;;;;;;41.03;25.02;;;6.90;70.50;;;;;;5290766;23;1332760;-72
2023/11/27 19:31:00;;;;;;;36.35;24.95;;;6.90;74.00;;;;;;4963292;28;20022;-73
2023/11/27 19:33:31;;;;;;;38.53;25.48;;;6.90;84.00;;;;;;4959590;28;20656;-73
2023/11/27 19:35:58;;;;;;;38.95;26.73;;;6.90;86.80;;;;;;4962487;28;20046;-73
2023/11/27 19:38:26;;;;;;;44.00;29.30;;;6.90;84.50;;;;;;4943047;28;20031;-73
2023/11/27 19:40:52;;;;;;;41.55;26.77;;;6.90;74.80;;;;;;4945266;28;20022;-72
2023/11/27 19:43:18;;;;;;;38.45;23.90;;;6.90;87.70;;;;;;4961253;28;20023;-73
2023/11/27 19:45:45;;;;;;;39.53;23.75;;;6.90;76.00;;;;;;4961053;28;20030;-72
2023/11/27 19:48:11;;;;;;;32.17;23.73;;;6.90;69.90;;;;;;4953787;28;20023;-73
2023/11/27 19:50:37;;;;;;;37.00;24.33;;;6.90;62.10;;;;;;4959047;28;20019;-72
2023/11/27 19:53:03;;;;;;;30.75;23.10;;;6.90;89.90;;;;;;4961353;28;20030;-72
2023/11/27 19:55:29;;;;;;;34.88;24.05;;;6.90;97.70;;;;;;4960502;28;20070;-72
2023/11/27 19:57:55;;;;;;;34.97;23.98;;;6.80;96.50;;;;;;4962392;28;20058;-73
2023/11/27 20:00:23;;;;;;;38.40;22.42;;;6.80;99.30;;;;;;4962884;28;20022;-73
2023/11/27 20:02:54;;;;;;;30.35;22.70;;;6.80;90.80;;;;;;4960647;28;20036;-72
2023/11/27 20:05:22;;;;;;;33.17;25.27;;;6.70;93.30;;;;;;4957270;28;20024;-72
2023/11/27 20:07:47;;;;;;;41.63;25.38;;;6.70;78.60;;;;;;4967118;28;20040;-73
2023/11/27 20:10:14;;;;;;;34.40;21.42;;;6.70;87.30;;;;;;4957865;28;20031;-73
2023/11/27 20:12:41;;;;;;;30.80;21.88;;;6.70;72.90;;;;;;4965383;28;20101;-74
2023/11/27 20:15:10;;;;;;;28.58;20.00;;;6.70;88.40;;;;;;4957704;28;20540;-73
2023/11/27 20:17:36;;;;;;;27.33;19.08;;;6.70;89.10;;;;;;4955180;28;20447;-73
2023/11/27 20:20:03;;;;;;;28.85;19.80;;;6.70;81.60;;;;;;4967479;28;20503;-73
2023/11/27 20:22:29;;;;;;;25.77;18.63;;;6.70;81.10;;;;;;4956318;28;20077;-73
2023/11/27 20:24:55;;;;;;;30.15;19.60;;;6.70;88.50;;;;;;4970292;28;20501;-73
2023/11/27 20:27:21;;;;;;;35.90;24.00;;;6.80;79.80;;;;;;4967152;28;20027;-73
2023/11/27 20:29:47;;;;;;;31.13;19.48;;;6.70;91.30;;;;;;4945537;28;20055;-74
2023/11/27 20:32:15;;;;;;;27.13;19.60;;;6.70;90.60;;;;;;4965721;28;20023;-73
2023/11/27 20:34:41;;;;;;;29.88;19.80;;;6.70;98.00;;;;;;4956723;28;20113;-73
2023/11/27 20:37:07;;;;;;;23.25;17.85;;;6.70;99.90;;;;;;4963670;28;20071;-74
2023/11/27 20:39:34;;;;;;;29.63;18.33;;;6.70;99.90;;;;;;4966497;28;20018;-73
2023/11/27 20:42:00;;;;;;;25.40;17.67;;;6.70;99.90;;;;;;4963844;28;20035;-73
2023/11/27 20:44:26;;;;;;;33.92;25.00;;;6.70;99.90;;;;;;4964565;28;20034;-73
2023/11/27 20:46:52;;;;;;;25.52;17.73;;;6.70;99.90;;;;;;4956902;28;20034;-73
2023/11/27 20:49:18;;;;;;;26.08;15.93;;;6.70;99.90;;;;;;4963108;28;20031;-73
2023/11/27 20:51:44;;;;;;;17.48;14.68;;;6.60;99.90;;;;;;4951207;28;20034;-73
2023/11/27 20:54:09;;;;;;;18.33;13.65;;;6.70;99.90;;;;;;4955401;28;20434;-73
2023/11/27 20:56:35;;;;;;;17.83;12.98;;;6.60;99.90;;;;;;4949342;28;20370;-73
2023/11/27 20:59:01;;;;;;;22.55;16.95;;;6.60;99.90;;;;;;4958078;28;20468;-73
2023/11/27 21:01:29;;;;;;;26.90;19.88;;;6.70;99.90;;;;;;4959258;28;20054;-73
2023/11/27 21:03:55;;;;;;;28.35;20.65;;;6.60;99.90;;;;;;4963656;28;20035;-73
2023/11/27 21:06:24;;;;;;;32.58;21.08;;;6.60;99.90;;;;;;4960066;28;20548;-73
2023/11/27 21:08:50;;;;;;;36.30;23.85;;;6.60;99.90;;;;;;4959405;28;20449;-73
2023/11/27 21:11:20;;;;;;;33.47;23.35;;;6.60;99.90;;;;;;4943515;28;20050;-73
2023/11/27 21:13:46;;;;;;;32.47;25.40;;;6.60;99.90;;;;;;4959276;28;20090;-73
2023/11/27 21:16:12;;;;;;;33.28;25.58;;;6.60;99.90;;;;;;4962478;28;20039;-73
2023/11/27 21:18:37;;;;;;;34.33;22.80;;;6.60;99.90;;;;;;4941030;29;20378;-73
2023/11/27 21:21:05;;;;;;;33.30;24.85;;;6.60;99.90;;;;;;4958254;28;20066;-74
2023/11/27 21:23:31;;;;;;;44.05;26.02;;;6.50;99.90;;;;;;4961072;28;20019;-73
2023/11/27 21:25:57;;;;;;;40.97;26.35;;;6.50;99.90;;;;;;4950120;28;20114;-73
2023/11/27 21:28:24;;;;;;;35.15;25.70;;;6.60;99.90;;;;;;4941380;28;20111;-73
2023/11/27 21:30:50;;;;;;;35.95;24.58;;;6.50;99.90;;;;;;4964691;28;20022;-72
2023/11/27 21:33:16;;;;;;;39.15;25.17;;;6.50;99.90;;;;;;4943951;28;20444;-73
2023/11/27 21:35:42;;;;;;;34.00;25.40;;;6.50;99.90;;;;;;4960280;28;20062;-73
2023/11/27 21:38:07;;;;;;;39.40;24.38;;;6.60;99.90;;;;;;4945476;28;20037;-73
2023/11/27 21:40:33;;;;;;;31.27;25.10;;;6.50;99.90;;;;;;4960569;28;20070;-73
2023/11/27 21:42:59;;;;;;;33.42;24.60;;;6.50;99.90;;;;;;4959665;28;20238;-72
2023/11/27 21:45:28;;;;;;;36.10;25.10;;;6.50;99.90;;;;;;4961088;28;20033;-73
2023/11/27 21:47:54;;;;;;;39.55;26.65;;;6.50;99.90;;;;;;4960457;28;20031;-73
2023/11/27 21:50:20;;;;;;;41.53;29.17;;;6.40;99.90;;;;;;4961478;28;20375;-73
2023/11/27 21:52:49;;;;;;;38.28;26.70;;;6.40;99.90;;;;;;4960232;28;20039;-75
2023/11/27 21:55:14;;;;;;;39.97;27.65;;;6.40;99.90;;;;;;4961967;28;20248;-73
2023/11/27 21:57:40;;;;;;;37.70;28.52;;;6.40;99.90;;;;;;4961199;28;20519;-73
2023/11/27 22:00:07;;;;;;;43.78;27.95;;;6.40;99.90;;;;;;4961351;28;20019;-73
2023/11/27 22:02:33;;;;;;;46.83;33.15;;;6.20;99.90;;;;;;4949758;28;20511;-73
2023/11/27 22:04:59;;;;;;;40.17;28.38;;;6.30;99.90;;;;;;4965438;28;20073;-72
2023/11/27 22:07:24;;;;;;;39.08;27.27;;;6.30;99.90;;;;;;4965154;28;20027;-73
2023/11/27 22:09:52;;;;;;;36.83;25.92;;;6.40;99.90;;;;;;4961963;28;20026;-73
2023/11/27 22:12:18;;;;;;;39.65;28.75;;;6.40;99.90;;;;;;4948348;28;20400;-73
2023/11/27 22:14:44;;;;;;;38.90;27.02;;;6.40;99.90;;;;;;4963897;28;20030;-73
2023/11/27 22:17:09;;;;;;;33.08;23.73;;;6.30;99.90;;;;;;4973203;28;20023;-72
2023/11/27 22:19:35;;;;;;;29.02;22.90;;;6.20;99.90;;;;;;4963272;28;20023;-72
2023/11/27 22:22:02;;;;;;;35.50;24.83;;;6.30;99.90;;;;;;4963603;28;20027;-72
2023/11/27 22:24:27;;;;;;;37.97;24.73;;;6.30;99.90;;;;;;4961474;28;20027;-72
2023/11/27 22:26:53;;;;;;;32.65;22.58;;;6.20;99.90;;;;;;4965002;28;20685;-73
2023/11/27 22:29:19;;;;;;;31.48;22.88;;;6.30;99.90;;;;;;4961520;28;20066;-72
2023/11/27 22:31:44;;;;;;;32.17;22.38;;;6.30;99.90;;;;;;4945596;28;20034;-72
2023/11/27 22:34:10;;;;;;;32.25;22.85;;;6.30;99.90;;;;;;4963721;28;20469;-72
2023/11/27 22:36:36;;;;;;;29.48;22.80;;;6.20;99.90;;;;;;4961421;28;20497;-72
2023/11/27 22:39:02;;;;;;;33.35;22.35;;;6.30;99.90;;;;;;4964392;28;20027;-72
2023/11/27 22:41:28;;;;;;;29.33;21.85;;;6.20;99.90;;;;;;4962406;28;20061;-72
2023/11/27 22:43:54;;;;;;;29.52;20.65;;;6.20;99.90;;;;;;4962577;28;20027;-72
2023/11/27 22:46:20;;;;;;;27.55;20.77;;;6.20;99.90;;;;;;4964409;28;20078;-72
2023/11/27 22:48:45;;;;;;;26.88;20.58;;;6.20;99.90;;;;;;4964211;28;20034;-73
2023/11/27 22:51:13;;;;;;;26.17;19.23;;;6.20;99.90;;;;;;4958039;28;20028;-73
2023/11/27 22:53:38;;;;;;;30.65;21.08;;;6.20;99.90;;;;;;4966902;28;20102;-72
2023/11/27 22:56:05;;;;;;;27.35;20.40;;;6.30;99.90;;;;;;4958587;28;20127;-72
2023/11/27 22:58:31;;;;;;;38.20;21.13;;;6.20;99.90;;;;;;4965184;28;20396;-73
2023/11/27 23:00:57;;;;;;;27.27;20.70;;;6.30;99.90;;;;;;4964551;28;20057;-73
2023/11/27 23:03:22;;;;;;;30.73;22.08;;;6.40;99.90;;;;;;4966036;28;20047;-72
2023/11/27 23:05:57;;;;;;;28.50;22.63;;;6.40;99.90;;;;;;4966389;28;20030;-72
2023/11/27 23:08:22;;;;;;;25.90;21.67;;;6.40;99.90;;;;;;4964961;28;20060;-72
2023/11/27 23:10:48;;;;;;;29.88;22.45;;;6.40;99.90;;;;;;4970468;28;20046;-73
2023/11/27 23:13:17;;;;;;;29.20;21.48;;;6.40;99.90;;;;;;4966355;28;20103;-73
2023/11/27 23:15:42;;;;;;;26.80;21.30;;;6.40;99.90;;;;;;4968583;28;20061;-72
2023/11/27 23:18:08;;;;;;;25.95;20.20;;;6.40;99.90;;;;;;4964911;28;20066;-73
2023/11/27 23:20:34;;;;;;;28.95;22.90;;;6.40;99.90;;;;;;4968786;28;20026;-72
2023/11/27 23:22:59;;;;;;;29.17;21.98;;;6.40;99.90;;;;;;4957198;28;20034;-73
2023/11/27 23:25:25;;;;;;;30.55;22.80;;;6.40;99.90;;;;;;4965830;28;20031;-73
2023/11/27 23:27:51;;;;;;;29.33;21.33;;;6.40;99.90;;;;;;4967263;28;20550;-73
2023/11/27 23:30:20;;;;;;;30.23;22.27;;;6.30;99.90;;;;;;4964554;28;20055;-73
2023/11/27 23:32:46;;;;;;;29.30;22.02;;;6.30;99.90;;;;;;4966635;28;20069;-72
2023/11/27 23:35:12;;;;;;;32.45;21.45;;;6.30;99.90;;;;;;4948890;28;20055;-72
2023/11/27 23:37:37;;;;;;;30.70;19.70;;;6.30;99.90;;;;;;4965277;28;20433;-73
2023/11/27 23:40:04;;;;;;;23.98;18.92;;;6.30;99.90;;;;;;4967412;28;20093;-73
2023/11/27 23:42:29;;;;;;;28.70;19.45;;;6.30;99.90;;;;;;4964666;28;20028;-73
2023/11/27 23:44:55;;;;;;;23.98;17.85;;;6.20;99.90;;;;;;4967434;28;20149;-72
2023/11/27 23:47:21;;;;;;;25.02;18.58;;;6.20;99.90;;;;;;4955312;29;20031;-73
2023/11/27 23:49:46;;;;;;;20.63;16.55;;;6.10;99.90;;;;;;4968171;28;20034;-72
2023/11/27 23:52:12;;;;;;;20.35;15.30;;;6.10;99.90;;;;;;4962609;28;20031;-72
2023/11/27 23:54:39;;;;;;;18.23;14.70;;;6.10;99.90;;;;;;4971492;28;20105;-73
2023/11/27 23:57:05;;;;;;;21.08;14.40;;;6.10;99.90;;;;;;4967767;28;20473;-72
2023/11/27 23:59:30;;;;;;;17.20;13.38;;;6.10;99.90;;;;;;4963568;28;20019;-73
